createdAt,value
2023-02-17T00:01:49.191Z,82.15
2023-02-17T00:04:36.164Z,82.52
2023-02-17T00:07:23.960Z,82.30
2023-02-17T00:10:10.707Z,82.12
2023-02-17T00:12:57.405Z,81.89
2023-02-17T00:15:43.995Z,82.15
2023-02-17T00:18:30.956Z,82.03
2023-02-17T00:21:20.405Z,81.89
2023-02-17T00:24:07.007Z,81.82
2023-02-17T00:26:53.872Z,81.84
2023-02-17T00:29:40.474Z,81.55
2023-02-17T00:32:27.287Z,81.61
2023-02-17T00:35:14.084Z,81.65
2023-02-17T00:38:00.636Z,81.39
2023-02-17T00:40:47.464Z,81.64
2023-02-17T00:43:34.702Z,81.25
2023-02-17T00:46:22.203Z,81.38
2023-02-17T00:49:14.306Z,81.34
2023-02-17T00:52:02.192Z,81.35
2023-02-17T00:54:48.933Z,81.15
2023-02-17T00:57:35.776Z,81.07
2023-02-17T01:00:22.832Z,80.82
2023-02-17T01:03:11.179Z,80.79
2023-02-17T01:05:57.697Z,80.62
2023-02-17T01:08:44.572Z,80.40
2023-02-17T01:11:33.061Z,80.35
2023-02-17T01:14:19.455Z,80.11
2023-02-17T01:17:06.263Z,80.00
2023-02-17T01:19:53.150Z,79.93
2023-02-17T01:22:40.092Z,80.01
2023-02-17T01:25:26.538Z,79.94
2023-02-17T01:28:21.146Z,79.88
2023-02-17T01:31:09.554Z,79.61
2023-02-17T01:33:58.254Z,79.79
2023-02-17T01:36:44.560Z,80.13
2023-02-17T01:39:31.271Z,80.16
2023-02-17T01:42:22.300Z,80.46
2023-02-17T01:45:17.932Z,80.37
2023-02-17T01:48:16.808Z,80.61
2023-02-17T01:51:21.549Z,80.65
2023-02-17T01:54:16.695Z,80.61
2023-02-17T01:57:03.738Z,80.69
2023-02-17T01:59:51.206Z,80.67
2023-02-17T02:02:40.340Z,80.50
2023-02-17T02:05:26.814Z,80.49
2023-02-17T02:08:15.337Z,80.49
2023-02-17T02:11:01.606Z,80.37
2023-02-17T02:13:50.647Z,80.33
2023-02-17T02:16:49.693Z,80.56
2023-02-17T02:19:48.338Z,80.40
2023-02-17T02:22:59.115Z,80.59
2023-02-17T02:26:04.940Z,80.46
2023-02-17T02:29:20.589Z,80.61
2023-02-17T02:32:38.721Z,80.79
2023-02-17T02:35:51.952Z,80.78
2023-02-17T02:38:47.127Z,80.70
2023-02-17T02:41:38.132Z,80.82
2023-02-17T02:44:25.140Z,80.70
2023-02-17T02:47:39.779Z,80.90
2023-02-17T02:51:00.980Z,81.22
2023-02-17T02:54:36.046Z,81.45
2023-02-17T02:57:30.394Z,81.51
2023-02-17T03:00:35.877Z,81.82
2023-02-17T03:03:44.396Z,82.11
2023-02-17T03:06:39.876Z,82.32
2023-02-17T03:09:27.677Z,82.81
2023-02-17T03:12:15.155Z,82.73
2023-02-17T03:15:08.521Z,82.78
2023-02-17T03:17:59.874Z,82.45
2023-02-17T03:20:54.566Z,82.77
2023-02-17T03:23:40.891Z,82.96
2023-02-17T03:26:27.715Z,83.40
2023-02-17T03:29:14.575Z,83.69
2023-02-17T03:32:01.579Z,83.71
2023-02-17T03:34:48.046Z,83.97
2023-02-17T03:37:34.896Z,84.55
2023-02-17T03:40:21.559Z,85.18
2023-02-17T03:43:09.277Z,85.43
2023-02-17T03:45:56.104Z,85.62
2023-02-17T03:48:43.524Z,85.52
2023-02-17T03:51:30.162Z,86.20
2023-02-17T03:54:16.995Z,86.44
2023-02-17T03:57:03.815Z,87.28
2023-02-17T03:59:50.335Z,88.72
2023-02-17T04:02:36.966Z,90.23
2023-02-17T04:05:24.568Z,91.53
2023-02-17T04:08:12.056Z,92.26
2023-02-17T04:11:01.362Z,92.85
2023-02-17T04:13:47.898Z,94.08
2023-02-17T04:16:34.716Z,94.83
2023-02-17T04:19:21.430Z,95.21
2023-02-17T04:22:09.030Z,95.57
2023-02-17T04:24:55.872Z,95.73
2023-02-17T04:27:42.738Z,95.99
2023-02-17T04:30:29.521Z,96.17
2023-02-17T04:33:17.540Z,96.43
2023-02-17T04:36:05.508Z,96.58
2023-02-17T04:38:52.305Z,96.75
2023-02-17T04:41:38.843Z,96.62
2023-02-17T04:44:25.818Z,96.96
2023-02-17T04:47:12.773Z,96.93
2023-02-17T04:49:59.482Z,97.16
2023-02-17T04:52:46.001Z,97.39
2023-02-17T04:55:33.514Z,97.69
2023-02-17T04:58:21.267Z,97.65
2023-02-17T05:01:07.898Z,97.99
2023-02-17T05:03:54.479Z,98.18
2023-02-17T05:06:41.250Z,98.59
2023-02-17T05:09:27.790Z,98.98
2023-02-17T05:12:14.603Z,99.18
2023-02-17T05:15:01.609Z,99.15
2023-02-17T05:17:48.508Z,99.40
2023-02-17T05:20:35.060Z,99.87
2023-02-17T05:23:21.980Z,99.96
2023-02-17T05:26:09.846Z,99.99
2023-02-17T05:28:57.743Z,100.00
2023-02-17T05:31:44.814Z,100.00
2023-02-17T05:34:32.109Z,100.00
2023-02-17T05:37:18.730Z,100.00
2023-02-17T05:40:06.414Z,100.00
2023-02-17T05:42:53.058Z,100.00
2023-02-17T05:45:39.793Z,100.00
2023-02-17T05:48:26.330Z,100.00
2023-02-17T05:51:17.225Z,100.00
2023-02-17T05:54:04.117Z,100.00
2023-02-17T05:56:50.559Z,100.00
2023-02-17T05:59:37.244Z,100.00
2023-02-17T06:02:23.976Z,100.00
2023-02-17T06:05:11.257Z,100.00
2023-02-17T06:07:58.089Z,100.00
2023-02-17T06:10:44.760Z,100.00
2023-02-17T06:13:31.336Z,100.00
2023-02-17T06:16:17.965Z,100.00
2023-02-17T06:19:06.566Z,99.97
2023-02-17T06:21:53.053Z,99.96
2023-02-17T06:24:39.866Z,99.75
2023-02-17T06:27:26.576Z,99.80
2023-02-17T06:30:15.119Z,99.63
2023-02-17T06:33:03.005Z,99.52
2023-02-17T06:35:51.646Z,99.21
2023-02-17T06:38:38.324Z,99.08
2023-02-17T06:41:25.079Z,98.98
2023-02-17T06:44:11.845Z,98.85
2023-02-17T06:46:59.426Z,98.34
2023-02-17T06:49:46.107Z,98.00
2023-02-17T06:52:32.649Z,97.92
2023-02-17T06:55:19.832Z,97.35
2023-02-17T06:58:07.544Z,97.05
2023-02-17T07:00:54.159Z,96.74
2023-02-17T07:03:40.755Z,95.57
2023-02-17T07:06:28.904Z,95.04
2023-02-17T07:09:15.331Z,94.76
2023-02-17T07:12:02.774Z,94.54
2023-02-17T07:14:49.414Z,94.13
2023-02-17T07:17:35.995Z,93.85
2023-02-17T07:20:22.729Z,93.43
2023-02-17T07:23:09.437Z,93.21
2023-02-17T07:25:56.374Z,92.20
2023-02-17T07:28:43.195Z,92.20
2023-02-17T07:31:30.251Z,92.01
2023-02-17T07:34:16.754Z,91.77
2023-02-17T07:37:03.492Z,90.95
2023-02-17T07:39:50.265Z,90.56
2023-02-17T07:42:36.950Z,90.32
2023-02-17T07:45:23.600Z,90.28
2023-02-17T07:48:10.452Z,89.77
2023-02-17T07:50:57.440Z,89.19
2023-02-17T07:53:43.838Z,89.40
2023-02-17T07:56:30.552Z,89.22
2023-02-17T07:59:16.889Z,89.07
2023-02-17T08:02:06.570Z,88.38
2023-02-17T08:04:53.322Z,88.36
2023-02-17T08:07:40.183Z,87.70
2023-02-17T08:10:46.690Z,87.84
2023-02-17T08:13:35.939Z,88.02
2023-02-17T08:16:22.252Z,87.76
2023-02-17T08:19:09.507Z,87.45
2023-02-17T08:21:56.096Z,86.56
2023-02-17T08:24:42.618Z,86.63
2023-02-17T08:27:29.228Z,86.21
2023-02-17T08:30:16.133Z,85.59
2023-02-17T08:33:02.532Z,84.91
2023-02-17T08:35:49.511Z,85.38
2023-02-17T08:38:36.173Z,85.72
2023-02-17T08:41:29.034Z,85.75
2023-02-17T08:44:18.825Z,85.32
2023-02-17T08:47:06.812Z,84.95
2023-02-17T08:49:53.799Z,84.40
2023-02-17T08:52:40.208Z,84.24
2023-02-17T08:55:35.565Z,84.37
2023-02-17T08:58:30.595Z,84.24
2023-02-17T09:01:19.225Z,83.86
2023-02-17T09:04:08.450Z,83.39
2023-02-17T09:06:56.786Z,83.65
2023-02-17T09:09:43.926Z,83.49
2023-02-17T09:12:30.914Z,83.62
2023-02-17T09:15:17.298Z,83.42
2023-02-17T09:18:04.008Z,83.60
2023-02-17T09:20:51.394Z,83.79
2023-02-17T09:23:38.497Z,84.30
2023-02-17T09:26:24.924Z,84.47
2023-02-17T09:29:11.854Z,84.81
2023-02-17T09:31:58.369Z,85.54
2023-02-17T09:34:51.514Z,86.54
2023-02-17T09:37:38.166Z,86.74
2023-02-17T09:40:33.064Z,87.10
2023-02-17T09:43:28.908Z,88.09
2023-02-17T09:46:24.131Z,87.95
2023-02-17T09:49:24.691Z,87.65
2023-02-17T09:52:21.215Z,88.55
2023-02-17T09:55:18.340Z,88.36
2023-02-17T09:58:20.172Z,88.43
2023-02-17T10:01:12.422Z,89.30
2023-02-17T10:04:07.397Z,89.23
2023-02-17T10:07:02.403Z,90.00
2023-02-17T10:09:58.437Z,90.61
2023-02-17T10:12:50.607Z,90.62
2023-02-17T10:16:10.179Z,90.78
2023-02-17T10:19:14.537Z,91.28
2023-02-17T10:22:14.946Z,91.41
2023-02-17T10:25:04.935Z,91.44
2023-02-17T10:28:17.430Z,91.63
2023-02-17T10:31:10.825Z,91.81
2023-02-17T10:34:20.338Z,92.05
2023-02-17T10:37:22.072Z,92.99
2023-02-17T10:40:15.534Z,93.26
2023-02-17T10:43:07.745Z,93.65
2023-02-17T10:45:57.711Z,93.30
2023-02-17T10:48:53.248Z,93.05
2023-02-17T10:51:39.515Z,93.69
2023-02-17T10:54:36.086Z,93.95
2023-02-17T10:57:26.731Z,94.12
2023-02-17T11:00:18.694Z,94.16
2023-02-17T11:03:05.383Z,94.36
2023-02-17T11:06:06.469Z,94.95
2023-02-17T11:08:58.812Z,95.07
2023-02-17T11:12:02.629Z,94.74
2023-02-17T11:14:54.285Z,94.68
2023-02-17T11:17:41.413Z,94.24
2023-02-17T11:20:33.195Z,94.58
2023-02-17T11:23:24.671Z,94.12
2023-02-17T11:26:18.508Z,93.75
2023-02-17T11:29:16.795Z,93.89
2023-02-17T11:32:11.117Z,94.79
2023-02-17T11:34:59.089Z,95.49
2023-02-17T11:37:45.374Z,96.62
2023-02-17T11:40:33.269Z,97.14
2023-02-17T11:43:20.856Z,97.20
2023-02-17T11:46:10.340Z,97.55
2023-02-17T11:49:06.318Z,97.22
2023-02-17T11:52:04.700Z,97.35
2023-02-17T11:55:39.023Z,97.63
2023-02-17T11:58:59.037Z,98.14
2023-02-17T12:02:02.122Z,98.70
2023-02-17T12:05:13.457Z,98.23
2023-02-17T12:08:23.175Z,97.93
2023-02-17T12:11:27.512Z,97.81
2023-02-17T12:14:45.694Z,97.72
2023-02-17T12:18:11.815Z,98.15
2023-02-17T12:21:07.239Z,98.35
2023-02-17T12:24:02.664Z,98.03
2023-02-17T12:27:12.300Z,98.11
2023-02-17T12:30:11.017Z,97.69
2023-02-17T12:33:31.238Z,97.32
2023-02-17T12:36:19.807Z,96.96
2023-02-17T12:39:35.251Z,96.65
2023-02-17T12:42:37.310Z,96.30
2023-02-17T12:45:36.868Z,96.22
2023-02-17T12:48:50.067Z,95.91
2023-02-17T12:51:51.207Z,95.32
2023-02-17T12:54:47.025Z,95.22
2023-02-17T12:57:55.963Z,95.51
2023-02-17T13:00:46.490Z,95.25
2023-02-17T13:03:34.960Z,95.20
2023-02-17T13:06:32.833Z,95.26
2023-02-17T13:09:31.670Z,95.84
2023-02-17T13:12:33.300Z,96.13
2023-02-17T13:15:34.693Z,96.53
2023-02-17T13:18:24.133Z,96.47
2023-02-17T13:21:27.517Z,96.43
2023-02-17T13:24:30.641Z,97.00
2023-02-17T13:27:34.090Z,97.27
2023-02-17T13:30:26.763Z,96.88
2023-02-17T13:33:22.888Z,97.18
2023-02-17T13:36:16.638Z,97.28
2023-02-17T13:39:26.899Z,97.40
2023-02-17T13:42:32.426Z,97.59
2023-02-17T13:45:59.728Z,98.83
2023-02-17T13:48:46.296Z,99.92
2023-02-17T13:51:34.033Z,100.00
2023-02-17T13:54:23.190Z,100.00
2023-02-17T13:57:23.008Z,100.00
2023-02-17T14:00:31.565Z,100.00
2023-02-17T14:03:25.686Z,100.00
2023-02-17T14:06:19.669Z,100.00
2023-02-17T14:09:20.701Z,100.00
2023-02-17T14:12:17.503Z,100.00
2023-02-17T14:15:04.424Z,100.00
2023-02-17T14:17:50.818Z,100.00
2023-02-17T14:20:37.635Z,100.00
2023-02-17T14:23:24.267Z,100.00
2023-02-17T14:26:27.894Z,100.00
2023-02-17T14:29:15.882Z,100.00
2023-02-17T14:32:02.388Z,100.00
2023-02-17T14:34:48.946Z,100.00
2023-02-17T14:37:37.036Z,100.00
2023-02-17T14:40:25.217Z,100.00
2023-02-17T14:43:11.673Z,100.00
2023-02-17T14:45:58.291Z,100.00
2023-02-17T14:48:44.578Z,100.00
2023-02-17T14:51:36.949Z,100.00
2023-02-17T14:54:26.326Z,100.00
2023-02-17T14:57:15.360Z,100.00
2023-02-17T15:00:01.870Z,100.00
2023-02-17T15:02:48.493Z,100.00
2023-02-17T15:05:35.141Z,100.00
2023-02-17T15:08:29.976Z,100.00
2023-02-17T15:11:20.826Z,100.00
2023-02-17T15:14:07.432Z,100.00
2023-02-17T15:16:53.646Z,100.00
2023-02-17T15:19:40.923Z,100.00
2023-02-17T15:22:27.368Z,100.00
2023-02-17T15:25:17.063Z,100.00
2023-02-17T15:28:04.124Z,100.00
2023-02-17T15:30:54.379Z,100.00
2023-02-17T15:33:41.280Z,100.00
2023-02-17T15:36:28.567Z,100.00
2023-02-17T15:39:18.395Z,100.00
2023-02-17T15:42:11.611Z,100.00
2023-02-17T15:44:58.955Z,100.00
2023-02-17T15:47:50.846Z,100.00
2023-02-17T15:50:37.356Z,100.00
2023-02-17T15:53:23.909Z,100.00
2023-02-17T15:56:20.356Z,100.00
2023-02-17T15:59:11.847Z,100.00
2023-02-17T16:02:01.288Z,100.00
2023-02-17T16:04:48.431Z,100.00
2023-02-17T16:07:36.353Z,100.00
2023-02-17T16:10:29.976Z,100.00
2023-02-17T16:13:19.570Z,100.00
2023-02-17T16:16:14.908Z,100.00
2023-02-17T16:19:02.506Z,100.00
2023-02-17T16:21:48.957Z,100.00
2023-02-17T16:24:35.317Z,100.00
2023-02-17T16:27:21.964Z,100.00
2023-02-17T16:30:30.747Z,100.00
2023-02-17T16:33:18.035Z,100.00
2023-02-17T16:36:10.689Z,100.00
2023-02-17T16:38:56.918Z,100.00
2023-02-17T16:41:44.408Z,100.00
2023-02-17T16:44:31.018Z,100.00
2023-02-17T16:47:20.923Z,100.00
2023-02-17T16:50:09.320Z,100.00
2023-02-17T16:52:59.471Z,100.00
2023-02-17T16:55:46.381Z,100.00
2023-02-17T16:58:32.723Z,100.00
2023-02-17T17:01:19.008Z,100.00
2023-02-17T17:04:06.055Z,100.00
2023-02-17T17:06:52.629Z,100.00
2023-02-17T17:09:39.083Z,100.00
2023-02-17T17:12:25.686Z,100.00
2023-02-17T17:15:13.019Z,100.00
2023-02-17T17:18:07.437Z,100.00
2023-02-17T17:20:53.567Z,100.00
2023-02-17T17:23:40.399Z,100.00
2023-02-17T17:26:41.736Z,100.00
2023-02-17T17:29:28.358Z,100.00
2023-02-17T17:32:14.955Z,100.00
2023-02-17T17:35:01.467Z,100.00
2023-02-17T17:37:48.124Z,100.00
2023-02-17T17:40:48.439Z,100.00
2023-02-17T17:43:35.005Z,100.00
2023-02-17T17:46:24.764Z,100.00
2023-02-17T17:49:14.204Z,100.00
2023-02-17T17:52:00.493Z,100.00
2023-02-17T17:54:46.897Z,100.00
2023-02-17T17:57:33.598Z,100.00
2023-02-17T18:00:20.217Z,100.00
2023-02-17T18:03:06.668Z,100.00
2023-02-17T18:05:52.956Z,100.00
2023-02-17T18:08:40.066Z,100.00
2023-02-17T18:11:27.329Z,100.00
2023-02-17T18:14:15.697Z,100.00
2023-02-17T18:17:02.465Z,100.00
2023-02-17T18:19:49.687Z,100.00
2023-02-17T18:22:35.974Z,100.00
2023-02-17T18:25:23.056Z,100.00
2023-02-17T18:28:09.298Z,100.00
2023-02-17T18:30:57.086Z,100.00
2023-02-17T18:33:43.947Z,100.00
2023-02-17T18:36:31.120Z,100.00
2023-02-17T18:39:17.471Z,100.00
2023-02-17T18:42:05.064Z,100.00
2023-02-17T18:44:52.235Z,100.00
2023-02-17T18:47:38.801Z,100.00
2023-02-17T18:50:26.414Z,100.00
2023-02-17T18:53:12.841Z,100.00
2023-02-17T18:56:01.752Z,100.00
2023-02-17T18:58:49.706Z,100.00
2023-02-17T19:01:39.461Z,100.00
2023-02-17T19:04:26.160Z,100.00
2023-02-17T19:07:12.795Z,100.00
2023-02-17T19:09:59.396Z,100.00
2023-02-17T19:12:45.786Z,100.00
2023-02-17T19:15:32.554Z,100.00
2023-02-17T19:18:19.113Z,100.00
2023-02-17T19:21:06.963Z,100.00
2023-02-17T19:23:53.749Z,100.00
2023-02-17T19:26:40.464Z,100.00
2023-02-17T19:29:26.665Z,100.00
2023-02-17T19:32:13.654Z,100.00
2023-02-17T19:34:59.851Z,100.00
2023-02-17T19:37:46.350Z,100.00
2023-02-17T19:40:35.003Z,100.00
2023-02-17T19:43:21.206Z,100.00
2023-02-17T19:46:08.338Z,100.00
2023-02-17T19:48:54.998Z,100.00
2023-02-17T19:51:41.484Z,100.00
2023-02-17T19:54:27.809Z,100.00
2023-02-17T19:57:17.446Z,100.00
2023-02-17T20:00:05.604Z,100.00
2023-02-17T20:02:51.995Z,100.00
2023-02-17T20:05:40.004Z,100.00
2023-02-17T20:08:26.600Z,100.00
2023-02-17T20:11:14.475Z,100.00
2023-02-17T20:14:01.892Z,100.00
2023-02-17T20:16:53.445Z,100.00
2023-02-17T20:19:41.029Z,100.00
2023-02-17T20:22:27.334Z,100.00
2023-02-17T20:25:13.697Z,100.00
2023-02-17T20:27:59.999Z,100.00
2023-02-17T20:30:46.268Z,100.00
2023-02-17T20:33:32.686Z,100.00
2023-02-17T20:36:18.991Z,100.00
2023-02-17T20:39:05.446Z,100.00
2023-02-17T20:41:54.860Z,100.00
2023-02-17T20:44:42.125Z,100.00
2023-02-17T20:47:29.742Z,100.00
2023-02-17T20:50:18.910Z,100.00
2023-02-17T20:53:05.167Z,100.00
2023-02-17T20:55:52.117Z,100.00
2023-02-17T20:58:40.228Z,100.00
2023-02-17T21:01:27.227Z,100.00
2023-02-17T21:04:15.254Z,100.00
2023-02-17T21:07:01.748Z,100.00
2023-02-17T21:09:48.311Z,100.00
2023-02-17T21:12:34.920Z,100.00
2023-02-17T21:15:21.825Z,100.00
2023-02-17T21:18:09.240Z,100.00
2023-02-17T21:20:55.555Z,99.94
2023-02-17T21:23:42.283Z,99.89
2023-02-17T21:26:28.475Z,99.50
2023-02-17T21:29:15.005Z,99.08
2023-02-17T21:32:01.295Z,99.08
2023-02-17T21:34:47.675Z,99.33
2023-02-17T21:37:34.464Z,99.07
2023-02-17T21:40:21.219Z,98.95
2023-02-17T21:43:39.600Z,98.59
2023-02-17T21:46:26.973Z,99.00
2023-02-17T21:49:13.944Z,98.70
2023-02-17T21:52:00.432Z,98.93
2023-02-17T21:54:46.495Z,98.48
2023-02-17T21:57:33.285Z,97.85
2023-02-17T22:00:19.986Z,98.12
2023-02-17T22:03:06.478Z,97.63
2023-02-17T22:05:53.019Z,96.04
2023-02-17T22:08:39.645Z,97.25
2023-02-17T22:11:30.026Z,98.21
2023-02-17T22:14:18.751Z,98.89
2023-02-17T22:17:05.049Z,98.15
2023-02-17T22:19:51.448Z,97.94
2023-02-17T22:22:37.827Z,97.56
2023-02-17T22:25:24.590Z,98.36
2023-02-17T22:28:13.426Z,98.66
2023-02-17T22:31:00.558Z,98.29
2023-02-17T22:33:47.359Z,97.56
2023-02-17T22:36:35.385Z,95.44
2023-02-17T22:39:21.667Z,94.93
2023-02-17T22:42:08.060Z,93.00
2023-02-17T22:44:54.647Z,89.90
2023-02-17T22:47:41.118Z,87.97
2023-02-17T22:50:27.332Z,87.03
2023-02-17T22:53:13.678Z,87.12
2023-02-17T22:55:59.734Z,86.47
2023-02-17T22:58:46.073Z,87.12
2023-02-17T23:01:35.466Z,86.99
2023-02-17T23:04:21.687Z,86.92
2023-02-17T23:07:08.665Z,86.37
2023-02-17T23:09:55.237Z,86.98
2023-02-17T23:12:41.462Z,86.63
2023-02-17T23:15:39.787Z,86.40
2023-02-17T23:18:27.486Z,84.59
2023-02-17T23:21:13.833Z,83.86
2023-02-17T23:24:00.258Z,83.86
2023-02-17T23:26:47.611Z,83.89
2023-02-17T23:29:34.852Z,84.33
2023-02-17T23:32:21.100Z,85.69
2023-02-17T23:35:07.728Z,84.91
2023-02-17T23:37:54.050Z,84.86
2023-02-17T23:40:42.041Z,85.34
2023-02-17T23:43:28.679Z,84.21
2023-02-17T23:46:15.000Z,83.73
2023-02-17T23:49:01.598Z,83.49
2023-02-17T23:51:47.855Z,83.65
2023-02-17T23:54:34.072Z,82.66
2023-02-17T23:57:20.395Z,81.24
